Terminal Aerodrome Forecast
Issued by NWS

Home | Current Version | Previous Version | Text Only | Print | Product List | Glossary On
Versions: 1 2 3 4 5 6 7 8 9 10 11 12 13 14 15 16 17
000
FTUS46 KMTR 200500 RRA
TAFSTS
TAF
KSTS 200541Z 2006/2106 21005KT P6SM OVC010
      TEMPO 2006/2008 OVC009
     FM200800 00000KT P6SM OVC008
     FM201800 19007KT P6SM FEW012
     FM210300 VRB03KT P6SM SCT010=

USA.gov is the U.S. government's official web portal to all federal, state and local government web resources and services.